Aeroporto :
LOGIN :

Iscrizione | Disclaimer

   EN    FR    IT 

 










Sommario :    VFR   VFR Marginale   IFR   IFR Intensivo   IFR Molto Intensivo
Visibilità : 
Base nubi : 
>= 8 km
>= 3000ft
5 / 8 km
1000 / 3000 ft
1500m / 5 km
500 / 1000 ft
800 / 1500m
200 / 500 ft
< 800m
< 200 ft
Simboli :   Temporali  Nebbia  Neve Forte  Precipitazioni Forti  Vento > 20 kt
SIGMETs :   Varie  Temporali  Ghiacco  Turbolenza  Onda orograficha  Ceneri Vulcaniche






- Altitudine del aeroporto : 42 ft
- Codice IATA : KGD


UMKK - Khrabrava - Kaliningrad

ULTIMO METAR :
  • 210530Z 22002MPS 9000 NSC 10/10 Q1020 R24/CLRD95 NOSIG RMK QFE764/1019

METARs OBSOLETI :
  • 210500Z 21002MPS 9000 NSC 09/08 Q1020 R24/CLRD95 NOSIG RMK QFE764/1018
  • 210430Z 19002MPS 6000 NSC 09/08 Q1020 R24/CLRD95 NOSIG RMK QFE763/1018
  • 210400Z 19002MPS 2000 0650E R24/0800D PRFG BR NSC 07/07 Q1020 R24/CLRD95 NOSIG RMK QFE764/1018
  • 210330Z 17001MPS 0350 R24/0900U PRFG NSC 08/08 Q1020 R24/CLRD95 NOSIG RMK QFE764/1018
  • 210300Z 10002MPS 3100 0200E R24/0600U PRFG BR NSC 07/07 Q1020 R24/CLRD95 NOSIG RMK QFE764/1019

TAF TAF UMKK
Valido dal 21 a 06 ore il 22 a 06 ore UTC


210458Z 2106/2206 23003G08MPS 5000 BR FEW005
TEMPO 2106/2108 VRB01MPS 0500 FG BKN002
BECMG 2108/2109 CAVOK
BECMG 2116/2118 18003MPS 4000 BR
TEMPO 2118/2124 2100 BR MIFG FEW003
TEMPO 2200/2206 1000 BR SCT002



MetMap, La meteo Aeronautica in un colpo d'occhio ! - Copyright ORBIFLY Dicembre 2007 - Disclaimer

ORBIFLY MET'MAP TEAM :

Programmazione e sviluppo : Alexandra Zaïnal
Concezione : Baudouin d'Aumeries
Aiuto per la programmazione : Marc-Olivier Méhu
Supporto tecnico e logistico : Manuel Goepfert
Aiuto per la traduzione : Arnaldo La Scala

Contatto : metmap@orbifly.com




FONTI E CREDITI :

   NOAA